KCEW/CEW METAR and TAF weather

Enter ICAO airport designator
Station Type Date Time Source
KCEW METAR 2019/02/23 22:53 UTC NOAA

KCEW 232253Z AUTO 18007KT 10SM OVC013 23/21 A3001 RMK AO2 SLP160 T02330206


Station Type Date Time Source
KCEW Decoded METAR 2019/02/23 22:53 UTC NOAA

CRESTVIEW SIKES AIRPORT, FL, United States (KCEW) 30-46N 086-31W 55M
Feb 23, 2019 - 05:53 PM EST / 2019.02.23 2253 UTC
Wind: from the S (180 degrees) at 8 MPH (7 KT):0
Visibility: 10 mile(s):0
Sky conditions: overcast
Temperature: 73.9 F (23.3 C)
Dew Point: 69.1 F (20.6 C)
Relative Humidity: 84%
Pressure (altimeter): 30.01 in. Hg (1016 hPa)
ob: KCEW 232253Z AUTO 18007KT 10SM OVC013 23/21 A3001 RMK AO2 SLP160 T02330206
cycle: 23

Station Type Date Time Source
KCEW TAF UTC NOAA

Error!


Example: see airport list